sensor_id;sensor_type;location;lat;lon;timestamp;temperature;humidity
7325;DHT22;3703;48.016;7.802;2022-07-06T00:00:53;20.50;99.90
7325;DHT22;3703;48.016;7.802;2022-07-06T00:03:40;20.60;99.90
7325;DHT22;3703;48.016;7.802;2022-07-06T00:06:28;20.60;99.90
7325;DHT22;3703;48.016;7.802;2022-07-06T00:09:16;20.40;99.90
7325;DHT22;3703;48.016;7.802;2022-07-06T00:12:06;20.50;99.90
7325;DHT22;3703;48.016;7.802;2022-07-06T00:14:55;20.50;99.90
7325;DHT22;3703;48.016;7.802;2022-07-06T00:17:42;20.40;99.90
7325;DHT22;3703;48.016;7.802;2022-07-06T00:20:30;20.50;99.90
7325;DHT22;3703;48.016;7.802;2022-07-06T00:23:18;20.60;99.90
7325;DHT22;3703;48.016;7.802;2022-07-06T00:26:07;20.30;1.00
7325;DHT22;3703;48.016;7.802;2022-07-06T00:28:56;20.30;99.90
7325;DHT22;3703;48.016;7.802;2022-07-06T00:31:44;20.10;1.00
7325;DHT22;3703;48.016;7.802;2022-07-06T00:34:31;19.90;1.00
7325;DHT22;3703;48.016;7.802;2022-07-06T00:37:21;19.90;1.00
7325;DHT22;3703;48.016;7.802;2022-07-06T00:40:09;19.70;1.00
7325;DHT22;3703;48.016;7.802;2022-07-06T00:42:57;19.80;1.00
7325;DHT22;3703;48.016;7.802;2022-07-06T00:45:47;19.70;1.00
7325;DHT22;3703;48.016;7.802;2022-07-06T00:48:35;19.80;1.00
7325;DHT22;3703;48.016;7.802;2022-07-06T00:51:25;19.80;1.00
7325;DHT22;3703;48.016;7.802;2022-07-06T00:54:14;19.80;1.00
7325;DHT22;3703;48.016;7.802;2022-07-06T00:57:02;19.80;1.00
7325;DHT22;3703;48.016;7.802;2022-07-06T00:59:50;19.70;1.00
7325;DHT22;3703;48.016;7.802;2022-07-06T01:02:40;19.50;1.00
7325;DHT22;3703;48.016;7.802;2022-07-06T01:05:28;19.40;1.00
7325;DHT22;3703;48.016;7.802;2022-07-06T01:08:16;19.50;1.00
7325;DHT22;3703;48.016;7.802;2022-07-06T01:11:03;19.30;1.00
7325;DHT22;3703;48.016;7.802;2022-07-06T01:13:52;19.20;1.00
7325;DHT22;3703;48.016;7.802;2022-07-06T01:16:40;19.00;1.00
7325;DHT22;3703;48.016;7.802;2022-07-06T01:19:29;19.10;99.90
7325;DHT22;3703;48.016;7.802;2022-07-06T01:22:18;18.90;99.90
7325;DHT22;3703;48.016;7.802;2022-07-06T01:25:07;19.00;99.90
7325;DHT22;3703;48.016;7.802;2022-07-06T01:27:55;19.00;99.90
7325;DHT22;3703;48.016;7.802;2022-07-06T01:30:42;18.80;99.90
7325;DHT22;3703;48.016;7.802;2022-07-06T01:33:30;18.80;99.90
7325;DHT22;3703;48.016;7.802;2022-07-06T01:36:19;18.70;99.90
7325;DHT22;3703;48.016;7.802;2022-07-06T01:39:09;18.70;99.90
7325;DHT22;3703;48.016;7.802;2022-07-06T01:41:57;18.60;99.90
7325;DHT22;3703;48.016;7.802;2022-07-06T01:44:45;18.60;1.00
7325;DHT22;3703;48.016;7.802;2022-07-06T01:47:32;18.80;99.90
7325;DHT22;3703;48.016;7.802;2022-07-06T01:50:20;18.90;99.90
7325;DHT22;3703;48.016;7.802;2022-07-06T01:53:08;19.00;99.90
7325;DHT22;3703;48.016;7.802;2022-07-06T01:55:58;19.10;99.90
7325;DHT22;3703;48.016;7.802;2022-07-06T01:58:46;19.10;99.90
7325;DHT22;3703;48.016;7.802;2022-07-06T02:01:34;19.00;1.00
7325;DHT22;3703;48.016;7.802;2022-07-06T02:04:21;19.10;1.00
7325;DHT22;3703;48.016;7.802;2022-07-06T02:07:09;19.10;99.90
7325;DHT22;3703;48.016;7.802;2022-07-06T02:09:57;19.10;1.00
7325;DHT22;3703;48.016;7.802;2022-07-06T02:12:47;18.90;99.90
7325;DHT22;3703;48.016;7.802;2022-07-06T02:15:34;18.90;1.00
7325;DHT22;3703;48.016;7.802;2022-07-06T02:18:22;19.10;1.00
7325;DHT22;3703;48.016;7.802;2022-07-06T02:21:10;19.10;99.90
7325;DHT22;3703;48.016;7.802;2022-07-06T02:23:57;19.00;99.90
7325;DHT22;3703;48.016;7.802;2022-07-06T02:26:45;18.80;99.90
7325;DHT22;3703;48.016;7.802;2022-07-06T02:29:34;18.70;99.90
7325;DHT22;3703;48.016;7.802;2022-07-06T02:32:22;18.70;99.90
7325;DHT22;3703;48.016;7.802;2022-07-06T02:35:09;18.50;1.00
7325;DHT22;3703;48.016;7.802;2022-07-06T02:37:57;18.50;99.90
7325;DHT22;3703;48.016;7.802;2022-07-06T02:40:45;18.30;1.00
7325;DHT22;3703;48.016;7.802;2022-07-06T02:43:32;18.40;1.00
7325;DHT22;3703;48.016;7.802;2022-07-06T02:46:21;18.50;1.00
7325;DHT22;3703;48.016;7.802;2022-07-06T02:49:09;18.60;1.00
7325;DHT22;3703;48.016;7.802;2022-07-06T02:51:57;18.70;1.00
7325;DHT22;3703;48.016;7.802;2022-07-06T02:54:44;18.60;1.00
7325;DHT22;3703;48.016;7.802;2022-07-06T02:57:32;18.60;1.00
7325;DHT22;3703;48.016;7.802;2022-07-06T03:00:20;18.50;1.00
7325;DHT22;3703;48.016;7.802;2022-07-06T03:03:09;18.30;1.00
7325;DHT22;3703;48.016;7.802;2022-07-06T03:05:56;18.40;1.00
7325;DHT22;3703;48.016;7.802;2022-07-06T03:08:44;18.20;1.00
7325;DHT22;3703;48.016;7.802;2022-07-06T03:11:31;17.80;1.00
7325;DHT22;3703;48.016;7.802;2022-07-06T03:14:21;18.00;1.00
7325;DHT22;3703;48.016;7.802;2022-07-06T03:17:11;18.00;1.00
7325;DHT22;3703;48.016;7.802;2022-07-06T03:20:00;18.10;1.00
7325;DHT22;3703;48.016;7.802;2022-07-06T03:22:47;18.10;1.00
7325;DHT22;3703;48.016;7.802;2022-07-06T03:25:35;18.00;1.00
7325;DHT22;3703;48.016;7.802;2022-07-06T03:28:23;18.10;1.00
7325;DHT22;3703;48.016;7.802;2022-07-06T03:31:10;18.00;1.00
7325;DHT22;3703;48.016;7.802;2022-07-06T03:33:58;17.90;1.00
7325;DHT22;3703;48.016;7.802;2022-07-06T03:36:48;18.00;1.00
7325;DHT22;3703;48.016;7.802;2022-07-06T03:39:35;18.10;1.00
7325;DHT22;3703;48.016;7.802;2022-07-06T03:42:23;18.00;1.00
7325;DHT22;3703;48.016;7.802;2022-07-06T03:45:11;17.90;1.00
7325;DHT22;3703;48.016;7.802;2022-07-06T03:47:58;18.00;1.00
7325;DHT22;3703;48.016;7.802;2022-07-06T03:50:46;18.00;1.00
7325;DHT22;3703;48.016;7.802;2022-07-06T03:53:35;18.00;1.00
7325;DHT22;3703;48.016;7.802;2022-07-06T03:56:23;17.90;1.00
7325;DHT22;3703;48.016;7.802;2022-07-06T03:59:18;17.80;1.00
7325;DHT22;3703;48.016;7.802;2022-07-06T04:02:06;17.70;1.00
7325;DHT22;3703;48.016;7.802;2022-07-06T04:04:53;17.70;1.00
7325;DHT22;3703;48.016;7.802;2022-07-06T04:07:41;17.60;1.00
7325;DHT22;3703;48.016;7.802;2022-07-06T04:10:30;17.70;1.00
7325;DHT22;3703;48.016;7.802;2022-07-06T04:13:18;17.60;1.00
7325;DHT22;3703;48.016;7.802;2022-07-06T04:16:06;17.40;1.00
7325;DHT22;3703;48.016;7.802;2022-07-06T04:18:54;17.30;1.00
7325;DHT22;3703;48.016;7.802;2022-07-06T04:21:41;17.40;1.00
7325;DHT22;3703;48.016;7.802;2022-07-06T04:24:29;17.20;1.00
7325;DHT22;3703;48.016;7.802;2022-07-06T04:27:18;17.30;1.00
7325;DHT22;3703;48.016;7.802;2022-07-06T04:30:08;17.40;1.00
7325;DHT22;3703;48.016;7.802;2022-07-06T04:32:56;17.40;1.00
7325;DHT22;3703;48.016;7.802;2022-07-06T04:35:44;17.50;1.00
7325;DHT22;3703;48.016;7.802;2022-07-06T04:38:31;17.90;1.00
7325;DHT22;3703;48.016;7.802;2022-07-06T04:41:19;17.80;1.00
7325;DHT22;3703;48.016;7.802;2022-07-06T04:44:08;17.90;1.00
7325;DHT22;3703;48.016;7.802;2022-07-06T04:46:56;18.00;1.00
7325;DHT22;3703;48.016;7.802;2022-07-06T04:49:43;17.90;1.00
7325;DHT22;3703;48.016;7.802;2022-07-06T04:52:31;17.80;1.00
7325;DHT22;3703;48.016;7.802;2022-07-06T04:55:19;18.00;1.00
7325;DHT22;3703;48.016;7.802;2022-07-06T04:58:07;18.10;1.00
7325;DHT22;3703;48.016;7.802;2022-07-06T05:00:56;18.20;1.00
7325;DHT22;3703;48.016;7.802;2022-07-06T05:03:44;18.30;1.00
7325;DHT22;3703;48.016;7.802;2022-07-06T05:06:32;18.20;1.00
7325;DHT22;3703;48.016;7.802;2022-07-06T05:09:19;18.30;1.00
7325;DHT22;3703;48.016;7.802;2022-07-06T05:12:09;18.30;1.00
7325;DHT22;3703;48.016;7.802;2022-07-06T05:14:57;18.50;1.00
7325;DHT22;3703;48.016;7.802;2022-07-06T05:17:47;18.70;1.00
7325;DHT22;3703;48.016;7.802;2022-07-06T05:20:35;18.60;1.00
7325;DHT22;3703;48.016;7.802;2022-07-06T05:23:23;18.60;1.00
7325;DHT22;3703;48.016;7.802;2022-07-06T05:26:10;18.80;1.00
7325;DHT22;3703;48.016;7.802;2022-07-06T05:28:59;19.00;1.00
7325;DHT22;3703;48.016;7.802;2022-07-06T05:31:47;19.10;99.90
7325;DHT22;3703;48.016;7.802;2022-07-06T05:34:37;19.20;99.90
7325;DHT22;3703;48.016;7.802;2022-07-06T05:37:26;19.10;1.00
7325;DHT22;3703;48.016;7.802;2022-07-06T05:40:13;19.10;1.00
7325;DHT22;3703;48.016;7.802;2022-07-06T05:43:02;19.10;1.00
7325;DHT22;3703;48.016;7.802;2022-07-06T05:45:50;19.30;1.00
7325;DHT22;3703;48.016;7.802;2022-07-06T05:48:38;19.30;1.00
7325;DHT22;3703;48.016;7.802;2022-07-06T05:51:44;19.10;1.00
7325;DHT22;3703;48.016;7.802;2022-07-06T05:54:32;19.00;1.00
7325;DHT22;3703;48.016;7.802;2022-07-06T05:57:20;19.10;1.00
7325;DHT22;3703;48.016;7.802;2022-07-06T06:00:08;19.30;1.00
7325;DHT22;3703;48.016;7.802;2022-07-06T06:02:57;19.40;1.00
7325;DHT22;3703;48.016;7.802;2022-07-06T06:05:46;19.60;1.00
7325;DHT22;3703;48.016;7.802;2022-07-06T06:08:35;19.90;1.00
7325;DHT22;3703;48.016;7.802;2022-07-06T06:11:22;19.80;1.00
7325;DHT22;3703;48.016;7.802;2022-07-06T06:14:10;20.00;1.00
7325;DHT22;3703;48.016;7.802;2022-07-06T06:16:58;20.00;99.90
7325;DHT22;3703;48.016;7.802;2022-07-06T06:19:46;20.20;99.90
7325;DHT22;3703;48.016;7.802;2022-07-06T06:22:44;20.50;99.90
7325;DHT22;3703;48.016;7.802;2022-07-06T06:25:36;20.70;99.90
7325;DHT22;3703;48.016;7.802;2022-07-06T06:28:25;20.80;99.90
7325;DHT22;3703;48.016;7.802;2022-07-06T06:31:12;20.90;99.90
7325;DHT22;3703;48.016;7.802;2022-07-06T06:34:00;20.90;99.90
7325;DHT22;3703;48.016;7.802;2022-07-06T06:36:48;21.00;99.90
7325;DHT22;3703;48.016;7.802;2022-07-06T06:39:35;21.10;99.90
7325;DHT22;3703;48.016;7.802;2022-07-06T06:42:25;21.00;99.90
7325;DHT22;3703;48.016;7.802;2022-07-06T06:45:12;21.10;99.90
7325;DHT22;3703;48.016;7.802;2022-07-06T06:48:00;21.10;99.90
7325;DHT22;3703;48.016;7.802;2022-07-06T06:50:48;21.00;99.90
7325;DHT22;3703;48.016;7.802;2022-07-06T06:53:35;21.20;99.90
7325;DHT22;3703;48.016;7.802;2022-07-06T06:56:23;21.10;99.90
7325;DHT22;3703;48.016;7.802;2022-07-06T06:59:12;21.10;99.90
7325;DHT22;3703;48.016;7.802;2022-07-06T07:02:00;21.20;99.90
7325;DHT22;3703;48.016;7.802;2022-07-06T07:04:48;21.30;99.90
7325;DHT22;3703;48.016;7.802;2022-07-06T07:07:36;21.40;99.90
7325;DHT22;3703;48.016;7.802;2022-07-06T07:10:24;21.50;99.90
7325;DHT22;3703;48.016;7.802;2022-07-06T07:13:12;21.60;99.90
7325;DHT22;3703;48.016;7.802;2022-07-06T07:16:01;21.60;1.00
7325;DHT22;3703;48.016;7.802;2022-07-06T07:18:49;21.60;1.00
7325;DHT22;3703;48.016;7.802;2022-07-06T07:21:37;21.60;54.70
7325;DHT22;3703;48.016;7.802;2022-07-06T07:24:24;21.60;99.90
7325;DHT22;3703;48.016;7.802;2022-07-06T07:27:13;21.60;34.60
7325;DHT22;3703;48.016;7.802;2022-07-06T07:30:00;21.70;95.60
7325;DHT22;3703;48.016;7.802;2022-07-06T07:32:50;21.90;17.90
7325;DHT22;3703;48.016;7.802;2022-07-06T07:35:38;22.00;51.70
7325;DHT22;3703;48.016;7.802;2022-07-06T07:38:26;22.00;1.00
7325;DHT22;3703;48.016;7.802;2022-07-06T07:41:13;22.10;1.00
7325;DHT22;3703;48.016;7.802;2022-07-06T07:44:02;22.20;1.00
7325;DHT22;3703;48.016;7.802;2022-07-06T07:46:50;22.30;1.00
7325;DHT22;3703;48.016;7.802;2022-07-06T07:49:40;22.40;99.90
7325;DHT22;3703;48.016;7.802;2022-07-06T07:52:28;22.40;99.90
7325;DHT22;3703;48.016;7.802;2022-07-06T07:55:16;22.60;99.90
7325;DHT22;3703;48.016;7.802;2022-07-06T07:58:04;22.60;1.00
7325;DHT22;3703;48.016;7.802;2022-07-06T08:00:52;22.50;99.90
7325;DHT22;3703;48.016;7.802;2022-07-06T08:03:39;22.40;99.90
7325;DHT22;3703;48.016;7.802;2022-07-06T08:06:28;22.30;99.90
7325;DHT22;3703;48.016;7.802;2022-07-06T08:09:17;22.60;99.90
7325;DHT22;3703;48.016;7.802;2022-07-06T08:12:05;22.80;99.90
7325;DHT22;3703;48.016;7.802;2022-07-06T08:14:53;22.90;90.70
7325;DHT22;3703;48.016;7.802;2022-07-06T08:17:42;22.90;94.30
7325;DHT22;3703;48.016;7.802;2022-07-06T08:20:29;22.90;1.00
7325;DHT22;3703;48.016;7.802;2022-07-06T08:23:18;22.90;99.90
7325;DHT22;3703;48.016;7.802;2022-07-06T08:26:07;22.90;99.90
7325;DHT22;3703;48.016;7.802;2022-07-06T08:28:55;23.10;26.50
7325;DHT22;3703;48.016;7.802;2022-07-06T08:31:42;23.20;1.00
7325;DHT22;3703;48.016;7.802;2022-07-06T08:34:30;23.10;99.90
7325;DHT22;3703;48.016;7.802;2022-07-06T08:37:18;23.00;24.30
7325;DHT22;3703;48.016;7.802;2022-07-06T08:40:08;22.90;1.00
7325;DHT22;3703;48.016;7.802;2022-07-06T08:42:57;23.00;99.90
7325;DHT22;3703;48.016;7.802;2022-07-06T08:45:46;23.10;1.00
7325;DHT22;3703;48.016;7.802;2022-07-06T08:48:38;23.20;1.00
7325;DHT22;3703;48.016;7.802;2022-07-06T08:51:27;23.30;99.90
7325;DHT22;3703;48.016;7.802;2022-07-06T08:54:16;23.30;1.00
7325;DHT22;3703;48.016;7.802;2022-07-06T08:57:07;23.20;99.90
7325;DHT22;3703;48.016;7.802;2022-07-06T08:59:55;23.30;1.00
7325;DHT22;3703;48.016;7.802;2022-07-06T09:02:43;23.50;99.90
7325;DHT22;3703;48.016;7.802;2022-07-06T09:05:33;23.70;99.90
7325;DHT22;3703;48.016;7.802;2022-07-06T09:08:22;23.70;99.90
7325;DHT22;3703;48.016;7.802;2022-07-06T09:11:11;23.70;1.00
7325;DHT22;3703;48.016;7.802;2022-07-06T09:14:00;23.80;99.90
7325;DHT22;3703;48.016;7.802;2022-07-06T09:16:52;23.90;99.90
7325;DHT22;3703;48.016;7.802;2022-07-06T09:19:49;23.70;99.80
7325;DHT22;3703;48.016;7.802;2022-07-06T09:22:38;23.90;1.00
7325;DHT22;3703;48.016;7.802;2022-07-06T09:25:27;24.00;1.00
7325;DHT22;3703;48.016;7.802;2022-07-06T09:28:14;24.10;9.00
7325;DHT22;3703;48.016;7.802;2022-07-06T09:31:08;24.20;99.90
7325;DHT22;3703;48.016;7.802;2022-07-06T09:33:58;24.40;1.00
7325;DHT22;3703;48.016;7.802;2022-07-06T09:36:49;24.40;99.90
7325;DHT22;3703;48.016;7.802;2022-07-06T09:39:38;24.60;1.00
7325;DHT22;3703;48.016;7.802;2022-07-06T09:42:27;24.70;1.00
7325;DHT22;3703;48.016;7.802;2022-07-06T09:45:20;24.70;99.90
7325;DHT22;3703;48.016;7.802;2022-07-06T09:48:14;24.70;1.00
7325;DHT22;3703;48.016;7.802;2022-07-06T09:51:07;24.70;99.90
7325;DHT22;3703;48.016;7.802;2022-07-06T09:53:58;24.70;99.90
7325;DHT22;3703;48.016;7.802;2022-07-06T09:56:47;24.80;99.90
7325;DHT22;3703;48.016;7.802;2022-07-06T09:59:37;24.90;99.90
7325;DHT22;3703;48.016;7.802;2022-07-06T10:02:25;25.00;1.00
7325;DHT22;3703;48.016;7.802;2022-07-06T10:05:16;25.00;99.90
7325;DHT22;3703;48.016;7.802;2022-07-06T10:08:06;25.00;99.90
7325;DHT22;3703;48.016;7.802;2022-07-06T10:10:55;25.00;98.20
7325;DHT22;3703;48.016;7.802;2022-07-06T10:13:45;25.20;99.90
7325;DHT22;3703;48.016;7.802;2022-07-06T10:16:36;25.50;86.40
7325;DHT22;3703;48.016;7.802;2022-07-06T10:19:27;25.60;2.40
7325;DHT22;3703;48.016;7.802;2022-07-06T10:22:19;25.80;99.90
7325;DHT22;3703;48.016;7.802;2022-07-06T10:25:07;26.00;1.00
7325;DHT22;3703;48.016;7.802;2022-07-06T10:27:55;25.90;99.90
7325;DHT22;3703;48.016;7.802;2022-07-06T10:30:44;25.90;99.90
7325;DHT22;3703;48.016;7.802;2022-07-06T10:33:33;25.80;99.90
7325;DHT22;3703;48.016;7.802;2022-07-06T10:36:21;25.80;99.90
7325;DHT22;3703;48.016;7.802;2022-07-06T10:39:11;25.90;99.90
7325;DHT22;3703;48.016;7.802;2022-07-06T10:42:43;26.10;1.00
7325;DHT22;3703;48.016;7.802;2022-07-06T10:45:51;26.10;99.90
7325;DHT22;3703;48.016;7.802;2022-07-06T10:48:41;26.30;99.90
7325;DHT22;3703;48.016;7.802;2022-07-06T10:51:29;26.40;99.90
7325;DHT22;3703;48.016;7.802;2022-07-06T10:54:20;26.50;99.90
7325;DHT22;3703;48.016;7.802;2022-07-06T10:57:09;26.70;99.00
7325;DHT22;3703;48.016;7.802;2022-07-06T11:00:02;26.80;1.00
7325;DHT22;3703;48.016;7.802;2022-07-06T11:02:51;26.80;1.00
7325;DHT22;3703;48.016;7.802;2022-07-06T11:05:42;26.50;1.00
7325;DHT22;3703;48.016;7.802;2022-07-06T11:08:53;26.50;1.00
7325;DHT22;3703;48.016;7.802;2022-07-06T11:11:43;26.60;1.00
7325;DHT22;3703;48.016;7.802;2022-07-06T11:14:35;26.60;1.00
7325;DHT22;3703;48.016;7.802;2022-07-06T11:17:23;26.70;1.00
7325;DHT22;3703;48.016;7.802;2022-07-06T11:20:12;26.90;1.00
7325;DHT22;3703;48.016;7.802;2022-07-06T11:23:00;26.90;1.00
7325;DHT22;3703;48.016;7.802;2022-07-06T11:25:48;27.30;1.00
7325;DHT22;3703;48.016;7.802;2022-07-06T11:28:37;27.30;1.00
7325;DHT22;3703;48.016;7.802;2022-07-06T11:31:25;27.20;99.90
7325;DHT22;3703;48.016;7.802;2022-07-06T11:34:17;27.10;99.90
7325;DHT22;3703;48.016;7.802;2022-07-06T11:37:07;27.00;99.90
7325;DHT22;3703;48.016;7.802;2022-07-06T11:39:55;27.20;99.90
7325;DHT22;3703;48.016;7.802;2022-07-06T11:42:53;27.40;99.90
7325;DHT22;3703;48.016;7.802;2022-07-06T11:45:42;27.60;99.90
7325;DHT22;3703;48.016;7.802;2022-07-06T11:48:30;27.70;99.90
7325;DHT22;3703;48.016;7.802;2022-07-06T11:51:18;27.70;99.90
7325;DHT22;3703;48.016;7.802;2022-07-06T11:54:09;27.70;99.90
7325;DHT22;3703;48.016;7.802;2022-07-06T11:56:59;27.80;99.90
7325;DHT22;3703;48.016;7.802;2022-07-06T11:59:49;27.80;99.90
7325;DHT22;3703;48.016;7.802;2022-07-06T12:02:40;27.40;99.90
7325;DHT22;3703;48.016;7.802;2022-07-06T12:05:30;27.30;99.90
7325;DHT22;3703;48.016;7.802;2022-07-06T12:08:18;27.70;99.90
7325;DHT22;3703;48.016;7.802;2022-07-06T12:11:06;28.00;99.90
7325;DHT22;3703;48.016;7.802;2022-07-06T12:13:55;28.20;99.90
7325;DHT22;3703;48.016;7.802;2022-07-06T12:16:45;28.30;99.90
7325;DHT22;3703;48.016;7.802;2022-07-06T12:19:36;28.40;99.90
7325;DHT22;3703;48.016;7.802;2022-07-06T12:22:25;28.40;99.90
7325;DHT22;3703;48.016;7.802;2022-07-06T12:25:29;27.90;78.10
7325;DHT22;3703;48.016;7.802;2022-07-06T12:28:26;28.00;99.90
7325;DHT22;3703;48.016;7.802;2022-07-06T12:31:32;28.10;92.10
7325;DHT22;3703;48.016;7.802;2022-07-06T12:34:23;27.90;1.00
7325;DHT22;3703;48.016;7.802;2022-07-06T12:37:13;27.10;1.00
7325;DHT22;3703;48.016;7.802;2022-07-06T12:40:02;27.30;94.20
7325;DHT22;3703;48.016;7.802;2022-07-06T12:42:52;27.60;99.90
7325;DHT22;3703;48.016;7.802;2022-07-06T12:45:40;27.80;89.60
7325;DHT22;3703;48.016;7.802;2022-07-06T12:48:31;28.00;55.70
7325;DHT22;3703;48.016;7.802;2022-07-06T12:51:19;28.20;99.90
7325;DHT22;3703;48.016;7.802;2022-07-06T12:54:15;28.50;99.90
7325;DHT22;3703;48.016;7.802;2022-07-06T12:57:07;28.60;99.90
7325;DHT22;3703;48.016;7.802;2022-07-06T12:59:58;28.20;99.90
7325;DHT22;3703;48.016;7.802;2022-07-06T13:02:49;28.40;99.90
7325;DHT22;3703;48.016;7.802;2022-07-06T13:05:49;28.60;99.90
7325;DHT22;3703;48.016;7.802;2022-07-06T13:08:37;28.70;99.90
7325;DHT22;3703;48.016;7.802;2022-07-06T13:11:26;29.00;99.90
7325;DHT22;3703;48.016;7.802;2022-07-06T13:14:14;28.90;99.90
7325;DHT22;3703;48.016;7.802;2022-07-06T13:17:02;28.90;24.80
7325;DHT22;3703;48.016;7.802;2022-07-06T13:19:50;29.10;99.90
7325;DHT22;3703;48.016;7.802;2022-07-06T13:22:38;29.20;56.60
7325;DHT22;3703;48.016;7.802;2022-07-06T13:25:27;29.10;1.00
7325;DHT22;3703;48.016;7.802;2022-07-06T13:28:16;29.20;34.30
7325;DHT22;3703;48.016;7.802;2022-07-06T13:31:03;29.20;92.80
7325;DHT22;3703;48.016;7.802;2022-07-06T13:33:51;29.30;31.50
7325;DHT22;3703;48.016;7.802;2022-07-06T13:36:39;29.50;18.90
7325;DHT22;3703;48.016;7.802;2022-07-06T13:39:27;29.50;48.00
7325;DHT22;3703;48.016;7.802;2022-07-06T13:42:15;29.50;1.00
7325;DHT22;3703;48.016;7.802;2022-07-06T13:45:05;29.50;1.00
7325;DHT22;3703;48.016;7.802;2022-07-06T13:47:53;29.40;1.00
7325;DHT22;3703;48.016;7.802;2022-07-06T13:50:41;29.40;1.00
7325;DHT22;3703;48.016;7.802;2022-07-06T13:53:29;29.50;1.00
7325;DHT22;3703;48.016;7.802;2022-07-06T13:56:17;29.70;1.00
7325;DHT22;3703;48.016;7.802;2022-07-06T13:59:06;29.80;1.00
7325;DHT22;3703;48.016;7.802;2022-07-06T14:01:56;29.60;1.00
7325;DHT22;3703;48.016;7.802;2022-07-06T14:04:43;29.60;1.00
7325;DHT22;3703;48.016;7.802;2022-07-06T14:07:31;29.40;1.00
7325;DHT22;3703;48.016;7.802;2022-07-06T14:10:19;29.40;1.00
7325;DHT22;3703;48.016;7.802;2022-07-06T14:13:07;29.50;1.00
7325;DHT22;3703;48.016;7.802;2022-07-06T14:15:55;29.70;1.00
7325;DHT22;3703;48.016;7.802;2022-07-06T14:18:44;29.80;1.00
7325;DHT22;3703;48.016;7.802;2022-07-06T14:21:32;29.90;1.00
7325;DHT22;3703;48.016;7.802;2022-07-06T14:24:20;29.80;1.00
7325;DHT22;3703;48.016;7.802;2022-07-06T14:27:08;29.90;1.00
7325;DHT22;3703;48.016;7.802;2022-07-06T14:29:55;29.90;1.00
7325;DHT22;3703;48.016;7.802;2022-07-06T14:32:43;29.70;1.00
7325;DHT22;3703;48.016;7.802;2022-07-06T14:35:33;29.60;1.00
7325;DHT22;3703;48.016;7.802;2022-07-06T14:38:22;29.50;1.00
7325;DHT22;3703;48.016;7.802;2022-07-06T14:41:10;29.40;1.00
7325;DHT22;3703;48.016;7.802;2022-07-06T14:43:57;29.40;1.00
7325;DHT22;3703;48.016;7.802;2022-07-06T14:46:45;29.40;1.00
7325;DHT22;3703;48.016;7.802;2022-07-06T14:49:33;29.20;1.00
7325;DHT22;3703;48.016;7.802;2022-07-06T14:52:22;28.90;1.00
7325;DHT22;3703;48.016;7.802;2022-07-06T14:55:10;29.00;1.00
7325;DHT22;3703;48.016;7.802;2022-07-06T14:57:57;29.00;1.00
7325;DHT22;3703;48.016;7.802;2022-07-06T15:00:45;29.10;1.00
7325;DHT22;3703;48.016;7.802;2022-07-06T15:03:33;29.10;1.00
7325;DHT22;3703;48.016;7.802;2022-07-06T15:06:21;29.00;1.00
7325;DHT22;3703;48.016;7.802;2022-07-06T15:09:10;28.90;1.00
7325;DHT22;3703;48.016;7.802;2022-07-06T15:11:57;28.90;1.00
7325;DHT22;3703;48.016;7.802;2022-07-06T15:14:45;28.90;1.00
7325;DHT22;3703;48.016;7.802;2022-07-06T15:17:33;28.70;1.00
7325;DHT22;3703;48.016;7.802;2022-07-06T15:20:21;28.30;1.00
7325;DHT22;3703;48.016;7.802;2022-07-06T15:23:08;28.00;1.00
7325;DHT22;3703;48.016;7.802;2022-07-06T15:25:58;27.80;1.00
7325;DHT22;3703;48.016;7.802;2022-07-06T15:28:46;27.80;1.00
7325;DHT22;3703;48.016;7.802;2022-07-06T15:31:33;27.40;1.00
7325;DHT22;3703;48.016;7.802;2022-07-06T15:34:21;27.20;1.00
7325;DHT22;3703;48.016;7.802;2022-07-06T15:37:09;27.20;1.00
7325;DHT22;3703;48.016;7.802;2022-07-06T15:39:57;27.00;1.00
7325;DHT22;3703;48.016;7.802;2022-07-06T15:42:46;27.10;1.00
7325;DHT22;3703;48.016;7.802;2022-07-06T15:45:33;26.90;1.00
7325;DHT22;3703;48.016;7.802;2022-07-06T15:48:21;26.80;1.00
7325;DHT22;3703;48.016;7.802;2022-07-06T15:51:09;26.70;1.00
7325;DHT22;3703;48.016;7.802;2022-07-06T15:53:57;26.50;1.00
7325;DHT22;3703;48.016;7.802;2022-07-06T15:56:44;26.40;1.00
7325;DHT22;3703;48.016;7.802;2022-07-06T15:59:33;26.10;1.00
7325;DHT22;3703;48.016;7.802;2022-07-06T16:02:21;26.10;1.00
7325;DHT22;3703;48.016;7.802;2022-07-06T16:05:09;26.20;1.00
7325;DHT22;3703;48.016;7.802;2022-07-06T16:07:57;26.10;1.00
7325;DHT22;3703;48.016;7.802;2022-07-06T16:10:45;26.20;1.00
7325;DHT22;3703;48.016;7.802;2022-07-06T16:13:33;26.10;1.00
7325;DHT22;3703;48.016;7.802;2022-07-06T16:16:22;25.90;1.00
7325;DHT22;3703;48.016;7.802;2022-07-06T16:19:10;25.60;1.00
7325;DHT22;3703;48.016;7.802;2022-07-06T16:21:58;25.40;1.00
7325;DHT22;3703;48.016;7.802;2022-07-06T16:24:46;25.30;1.00
7325;DHT22;3703;48.016;7.802;2022-07-06T16:27:34;25.30;1.00
7325;DHT22;3703;48.016;7.802;2022-07-06T16:30:23;25.10;1.00
7325;DHT22;3703;48.016;7.802;2022-07-06T16:33:15;25.00;1.00
7325;DHT22;3703;48.016;7.802;2022-07-06T16:36:05;25.00;1.00
7325;DHT22;3703;48.016;7.802;2022-07-06T16:38:54;24.70;1.00
7325;DHT22;3703;48.016;7.802;2022-07-06T16:41:42;24.60;1.00
7325;DHT22;3703;48.016;7.802;2022-07-06T16:44:30;24.60;1.00
7325;DHT22;3703;48.016;7.802;2022-07-06T16:47:18;24.70;1.00
7325;DHT22;3703;48.016;7.802;2022-07-06T16:50:08;24.90;1.00
7325;DHT22;3703;48.016;7.802;2022-07-06T16:52:56;24.60;1.00
7325;DHT22;3703;48.016;7.802;2022-07-06T16:55:44;24.50;1.00
7325;DHT22;3703;48.016;7.802;2022-07-06T16:58:32;24.50;1.00
7325;DHT22;3703;48.016;7.802;2022-07-06T17:01:20;24.60;1.00
7325;DHT22;3703;48.016;7.802;2022-07-06T17:04:08;24.70;1.00
7325;DHT22;3703;48.016;7.802;2022-07-06T17:06:57;24.80;1.00
7325;DHT22;3703;48.016;7.802;2022-07-06T17:09:44;25.00;1.00
7325;DHT22;3703;48.016;7.802;2022-07-06T17:12:32;25.10;1.00
7325;DHT22;3703;48.016;7.802;2022-07-06T17:15:20;25.30;1.00
7325;DHT22;3703;48.016;7.802;2022-07-06T17:18:08;25.30;1.00
7325;DHT22;3703;48.016;7.802;2022-07-06T17:20:56;25.40;1.00
7325;DHT22;3703;48.016;7.802;2022-07-06T17:23:46;25.50;1.00
7325;DHT22;3703;48.016;7.802;2022-07-06T17:26:34;25.60;1.00
7325;DHT22;3703;48.016;7.802;2022-07-06T17:29:22;25.70;1.00
7325;DHT22;3703;48.016;7.802;2022-07-06T17:32:10;25.80;1.00
7325;DHT22;3703;48.016;7.802;2022-07-06T17:34:59;25.80;99.90
7325;DHT22;3703;48.016;7.802;2022-07-06T17:37:47;25.90;99.90
7325;DHT22;3703;48.016;7.802;2022-07-06T17:40:36;26.00;99.90
7325;DHT22;3703;48.016;7.802;2022-07-06T17:43:24;26.10;99.90
7325;DHT22;3703;48.016;7.802;2022-07-06T17:46:12;26.20;99.90
7325;DHT22;3703;48.016;7.802;2022-07-06T17:48:59;26.10;99.90
7325;DHT22;3703;48.016;7.802;2022-07-06T17:51:47;26.10;99.90
7325;DHT22;3703;48.016;7.802;2022-07-06T17:54:35;26.00;99.90
7325;DHT22;3703;48.016;7.802;2022-07-06T17:57:24;25.90;99.90
7325;DHT22;3703;48.016;7.802;2022-07-06T18:00:13;25.80;99.90
7325;DHT22;3703;48.016;7.802;2022-07-06T18:03:01;25.60;99.90
7325;DHT22;3703;48.016;7.802;2022-07-06T18:05:51;25.60;99.90
7325;DHT22;3703;48.016;7.802;2022-07-06T18:08:39;25.40;99.90
7325;DHT22;3703;48.016;7.802;2022-07-06T18:11:26;25.30;99.90
7325;DHT22;3703;48.016;7.802;2022-07-06T18:14:16;25.30;99.90
7325;DHT22;3703;48.016;7.802;2022-07-06T18:17:04;25.10;99.90
7325;DHT22;3703;48.016;7.802;2022-07-06T18:19:52;25.00;99.90
7325;DHT22;3703;48.016;7.802;2022-07-06T18:22:40;24.90;99.90
7325;DHT22;3703;48.016;7.802;2022-07-06T18:25:28;24.80;99.90
7325;DHT22;3703;48.016;7.802;2022-07-06T18:28:16;24.70;99.90
7325;DHT22;3703;48.016;7.802;2022-07-06T18:31:05;24.60;99.90